createdAt,value
2018-12-18T00:00:14.364Z,100731.23
2018-12-18T00:02:40.327Z,100738.05
2018-12-18T00:05:06.274Z,100734.82
2018-12-18T00:07:32.248Z,100737.34
2018-12-18T00:09:58.201Z,100732.78
2018-12-18T00:12:24.208Z,100726.62
2018-12-18T00:14:50.156Z,100720.20
2018-12-18T00:17:16.107Z,100726.92
2018-12-18T00:19:42.072Z,100727.91
2018-12-18T00:22:08.063Z,100727.55
2018-12-18T00:24:34.066Z,100727.94
2018-12-18T00:27:00.048Z,100718.95
2018-12-18T00:29:26.040Z,100721.47
2018-12-18T00:31:52.001Z,100720.84
2018-12-18T00:34:17.971Z,100717.86
2018-12-18T00:36:43.949Z,100715.10
2018-12-18T00:39:09.931Z,100716.49
2018-12-18T00:41:35.879Z,100707.08
2018-12-18T00:44:01.848Z,100717.98
2018-12-18T00:46:27.801Z,100711.63
2018-12-18T00:48:53.783Z,100720.33
2018-12-18T00:51:19.761Z,100714.74
2018-12-18T00:53:45.752Z,100719.09
2018-12-18T00:56:11.726Z,100723.41
2018-12-18T00:58:37.680Z,100728.24
2018-12-18T01:01:03.900Z,100728.53
2018-12-18T01:03:29.863Z,100728.64
2018-12-18T01:05:55.844Z,100730.36
2018-12-18T01:08:21.802Z,100727.23
2018-12-18T01:10:47.783Z,100735.33
2018-12-18T01:18:21.296Z,100741.38
2018-12-18T01:20:47.279Z,100743.20
2018-12-18T01:23:13.231Z,100739.86
2018-12-18T01:25:39.192Z,100746.83
2018-12-18T01:28:05.137Z,100752.19
2018-12-18T01:30:31.106Z,100757.30
2018-12-18T01:32:57.055Z,100756.27
2018-12-18T01:35:23.012Z,100747.05
2018-12-18T01:37:49.004Z,100746.30
2018-12-18T01:40:14.969Z,100753.88
2018-12-18T01:42:40.953Z,100746.10
2018-12-18T01:45:06.922Z,100746.73
2018-12-18T01:47:32.886Z,100745.80
2018-12-18T01:49:58.863Z,100751.55
2018-12-18T01:52:24.829Z,100740.83
2018-12-18T01:54:50.795Z,100744.54
2018-12-18T01:57:16.754Z,100742.96
2018-12-18T01:59:42.692Z,100743.28
2018-12-18T02:02:08.689Z,100744.50
2018-12-18T02:04:34.635Z,100749.85
2018-12-18T02:07:00.594Z,100746.73
2018-12-18T02:09:26.555Z,100751.45
2018-12-18T02:11:52.534Z,100746.98
2018-12-18T02:14:18.514Z,100742.85
2018-12-18T02:16:44.480Z,100742.81
2018-12-18T02:19:10.439Z,100738.67
2018-12-18T02:21:36.761Z,100736.80
2018-12-18T02:24:02.737Z,100733.89
2018-12-18T02:26:28.714Z,100743.72
2018-12-18T02:28:54.688Z,100746.70
2018-12-18T02:31:20.648Z,100746.24
2018-12-18T02:33:46.608Z,100753.87
2018-12-18T02:36:12.688Z,100752.05
2018-12-18T02:38:38.660Z,100751.15
2018-12-18T02:41:04.646Z,100755.96
2018-12-18T02:43:30.606Z,100752.41
2018-12-18T02:45:56.553Z,100759.03
2018-12-18T02:48:22.522Z,100758.36
2018-12-18T02:50:48.474Z,100758.39
2018-12-18T02:53:14.460Z,100765.09
2018-12-18T02:55:40.424Z,100763.25
2018-12-18T02:58:06.403Z,100763.31
2018-12-18T03:00:32.400Z,100771.77
2018-12-18T03:02:58.347Z,100774.98
2018-12-18T03:05:24.304Z,100776.84
2018-12-18T03:07:50.256Z,100774.32
2018-12-18T03:10:16.217Z,100778.16
2018-12-18T03:12:42.209Z,100770.36
2018-12-18T03:15:08.156Z,100772.91
2018-12-18T03:17:34.184Z,100764.45
2018-12-18T03:20:00.157Z,100756.17
2018-12-18T03:22:26.142Z,100760.61
2018-12-18T03:24:52.093Z,100755.80
2018-12-18T03:27:18.129Z,100758.76
2018-12-18T03:29:44.131Z,100750.36
2018-12-18T03:32:10.073Z,100746.61
2018-12-18T03:34:36.071Z,100741.01
2018-12-18T03:37:02.099Z,100745.11
2018-12-18T03:39:28.057Z,100746.73
2018-12-18T03:41:54.047Z,100750.98
2018-12-18T03:44:20.008Z,100748.48
2018-12-18T03:46:45.979Z,100750.15
2018-12-18T03:49:11.929Z,100744.27
2018-12-18T03:51:37.905Z,100748.98
2018-12-18T03:54:03.873Z,100753.77
2018-12-18T03:56:29.836Z,100752.48
2018-12-18T03:58:55.796Z,100755.13
2018-12-18T04:01:21.771Z,100752.91
2018-12-18T04:03:47.747Z,100750.76
2018-12-18T04:06:13.717Z,100756.58
2018-12-18T04:08:39.674Z,100758.36
2018-12-18T04:11:05.641Z,100758.55
2018-12-18T04:13:31.609Z,100748.42
2018-12-18T04:15:57.589Z,100761.98
2018-12-18T04:18:23.544Z,100758.76
2018-12-18T04:20:49.550Z,100760.85
2018-12-18T04:23:15.522Z,100761.38
2018-12-18T04:25:41.508Z,100771.92
2018-12-18T04:28:11.802Z,100764.55
2018-12-18T04:30:42.008Z,100772.01
2018-12-18T04:33:07.974Z,100764.38
2018-12-18T04:35:33.951Z,100772.78
2018-12-18T04:37:59.933Z,100763.98
2018-12-18T04:40:25.909Z,100766.59
2018-12-18T04:42:51.888Z,100769.48
2018-12-18T04:45:17.841Z,100770.72
2018-12-18T04:47:44.892Z,100761.09
2018-12-18T04:50:10.847Z,100769.48
2018-12-18T04:52:36.816Z,100777.14
2018-12-18T04:55:02.775Z,100777.12
2018-12-18T04:57:28.766Z,100775.88
2018-12-18T04:59:55.996Z,100776.69
2018-12-18T05:02:21.988Z,100776.69
2018-12-18T05:04:50.548Z,100784.12
2018-12-18T05:07:15.956Z,100782.05
2018-12-18T05:09:41.916Z,100785.95
2018-12-18T05:12:07.881Z,100784.62
2018-12-18T05:14:33.913Z,100788.41
2018-12-18T05:16:59.951Z,100789.95
2018-12-18T05:19:25.995Z,100794.48
2018-12-18T05:21:51.973Z,100795.24
2018-12-18T05:24:18.023Z,100799.55
2018-12-18T05:26:44.019Z,100801.45
2018-12-18T05:29:09.960Z,100798.58
2018-12-18T05:31:35.936Z,100799.52
2018-12-18T05:34:01.880Z,100810.48
2018-12-18T05:36:27.883Z,100808.06
2018-12-18T05:38:53.865Z,100804.22
2018-12-18T05:41:19.820Z,100801.34
2018-12-18T05:43:45.759Z,100803.09
2018-12-18T05:46:11.804Z,100798.55
2018-12-18T05:48:37.783Z,100801.27
2018-12-18T05:51:04.329Z,100807.67
2018-12-18T05:53:32.053Z,100811.25
2018-12-18T05:55:58.267Z,100809.64
2018-12-18T05:58:24.235Z,100809.80
2018-12-18T06:00:50.200Z,100812.33
2018-12-18T06:03:16.146Z,100806.69
2018-12-18T06:05:42.096Z,100812.73
2018-12-18T06:08:09.122Z,100816.55
2018-12-18T06:10:35.066Z,100821.16
2018-12-18T06:13:01.185Z,100815.18
2018-12-18T06:15:27.425Z,100822.19
2018-12-18T06:17:53.487Z,100824.40
2018-12-18T06:20:19.635Z,100822.93
2018-12-18T06:22:45.760Z,100823.67
2018-12-18T06:25:11.704Z,100828.02
2018-12-18T06:27:37.682Z,100829.19
2018-12-18T06:30:03.632Z,100825.89
2018-12-18T06:32:29.622Z,100826.72
2018-12-18T06:34:55.583Z,100822.91
2018-12-18T06:37:21.558Z,100826.84
2018-12-18T06:39:47.563Z,100825.00
2018-12-18T06:42:13.553Z,100834.17
2018-12-18T06:44:39.546Z,100833.95
2018-12-18T06:47:05.494Z,100836.75
2018-12-18T06:49:31.459Z,100839.28
2018-12-18T06:51:57.422Z,100834.47
2018-12-18T06:54:23.387Z,100832.72
2018-12-18T06:56:49.435Z,100838.66
2018-12-18T06:59:15.391Z,100847.80
2018-12-18T07:01:41.340Z,100848.60
2018-12-18T07:04:07.296Z,100851.28
2018-12-18T07:06:33.263Z,100850.11
2018-12-18T07:08:59.304Z,100852.58
2018-12-18T07:11:25.275Z,100855.99
2018-12-18T07:13:51.231Z,100858.09
2018-12-18T07:16:17.182Z,100854.23
2018-12-18T07:18:43.163Z,100861.63
2018-12-18T07:21:09.143Z,100850.50
2018-12-18T07:23:35.114Z,100857.71
2018-12-18T07:26:01.075Z,100866.55
2018-12-18T07:28:27.061Z,100862.05
2018-12-18T07:30:53.017Z,100860.66
2018-12-18T07:33:18.999Z,100859.72
2018-12-18T07:35:45.003Z,100862.45
2018-12-18T07:38:10.985Z,100863.63
2018-12-18T07:40:36.933Z,100859.22
2018-12-18T07:43:02.920Z,100857.59
2018-12-18T07:45:28.871Z,100853.28
2018-12-18T07:47:54.841Z,100859.22
2018-12-18T07:50:20.801Z,100863.04
2018-12-18T07:52:46.788Z,100859.20
2018-12-18T07:55:12.745Z,100863.91
2018-12-18T07:57:38.724Z,100856.00
2018-12-18T08:00:04.697Z,100867.10
2018-12-18T08:02:30.658Z,100867.05
2018-12-18T08:04:56.623Z,100859.67
2018-12-18T08:07:22.602Z,100865.09
2018-12-18T08:09:48.680Z,100867.91
2018-12-18T08:12:14.642Z,100865.06
2018-12-18T08:14:40.579Z,100866.09
2018-12-18T08:17:06.531Z,100869.86
2018-12-18T08:19:32.579Z,100872.30
2018-12-18T08:21:58.539Z,100877.84
2018-12-18T08:24:24.596Z,100872.30
2018-12-18T08:26:50.606Z,100880.36
2018-12-18T08:29:16.603Z,100875.25
2018-12-18T08:31:42.587Z,100877.14
2018-12-18T08:34:08.554Z,100874.19
2018-12-18T08:36:34.507Z,100885.88
2018-12-18T08:39:01.570Z,100883.81
2018-12-18T08:41:27.572Z,100888.44
2018-12-18T08:43:53.556Z,100885.91
2018-12-18T08:46:19.516Z,100892.25
2018-12-18T08:48:45.540Z,100895.15
2018-12-18T08:51:11.492Z,100895.23
2018-12-18T08:53:37.474Z,100900.63
2018-12-18T08:56:03.455Z,100913.72
2018-12-18T08:58:29.433Z,100909.22
2018-12-18T09:00:55.405Z,100908.81
2018-12-18T09:03:21.409Z,100913.69
2018-12-18T09:05:47.396Z,100920.95
2018-12-18T09:08:13.340Z,100915.91
2018-12-18T09:10:40.013Z,100911.56
2018-12-18T09:13:06.179Z,100918.55
2018-12-18T09:15:32.156Z,100913.98
2018-12-18T09:17:58.293Z,100914.27
2018-12-18T09:20:24.267Z,100918.49
2018-12-18T09:22:50.244Z,100916.17
2018-12-18T09:25:16.203Z,100917.98
2018-12-18T09:27:42.199Z,100917.41
2018-12-18T09:30:08.208Z,100917.23
2018-12-18T09:32:34.152Z,100913.96
2018-12-18T09:35:00.108Z,100920.98
2018-12-18T09:37:26.075Z,100916.78
2018-12-18T09:39:52.040Z,100912.11
2018-12-18T09:42:17.988Z,100898.77
2018-12-18T09:44:43.987Z,100893.59
2018-12-18T09:47:09.960Z,100898.09
2018-12-18T09:49:35.987Z,100896.52
2018-12-18T09:52:01.980Z,100896.61
2018-12-18T09:54:28.089Z,100894.60
2018-12-18T09:56:54.064Z,100889.41
2018-12-18T09:59:20.043Z,100882.48
2018-12-18T10:01:46.009Z,100883.77
2018-12-18T10:04:12.239Z,100882.11
2018-12-18T10:06:38.181Z,100887.16
2018-12-18T10:09:09.623Z,100884.61
2018-12-18T10:11:32.111Z,100882.03
2018-12-18T10:13:58.069Z,100884.96
2018-12-18T10:16:24.022Z,100889.59
2018-12-18T10:18:50.010Z,100886.88
2018-12-18T10:21:16.081Z,100888.99
2018-12-18T10:23:42.177Z,100883.83
2018-12-18T10:26:08.178Z,100890.25
2018-12-18T10:28:34.148Z,100881.31
2018-12-18T10:31:00.090Z,100882.89
2018-12-18T10:33:26.165Z,100885.63
2018-12-18T10:35:52.170Z,100891.63
2018-12-18T10:38:18.204Z,100882.62
2018-12-18T10:40:44.153Z,100885.44
2018-12-18T10:43:10.117Z,100880.84
2018-12-18T10:45:36.093Z,100879.72
2018-12-18T10:48:02.099Z,100879.80
2018-12-18T10:50:28.041Z,100879.63
2018-12-18T10:52:53.985Z,100875.05
2018-12-18T10:55:19.951Z,100880.84
2018-12-18T10:57:45.958Z,100876.59
2018-12-18T11:00:11.944Z,100870.33
2018-12-18T11:02:37.950Z,100868.28
2018-12-18T11:05:04.016Z,100866.41
2018-12-18T11:07:29.990Z,100866.76
2018-12-18T11:09:55.979Z,100863.70
2018-12-18T11:12:21.977Z,100863.34
2018-12-18T11:14:47.935Z,100851.77
2018-12-18T11:17:13.881Z,100854.70
2018-12-18T11:19:39.821Z,100854.77
2018-12-18T11:22:05.784Z,100857.47
2018-12-18T11:24:31.761Z,100854.01
2018-12-18T11:26:57.726Z,100850.61
2018-12-18T11:29:23.702Z,100840.29
2018-12-18T11:31:49.688Z,100844.23
2018-12-18T11:34:15.710Z,100842.69
2018-12-18T11:36:41.649Z,100841.07
2018-12-18T11:39:07.589Z,100830.33
2018-12-18T11:41:34.615Z,100827.41
2018-12-18T11:44:00.600Z,100821.41
2018-12-18T11:46:26.591Z,100818.93
2018-12-18T11:48:52.536Z,100810.98
2018-12-18T11:51:18.496Z,100811.22
2018-12-18T11:53:44.517Z,100816.78
2018-12-18T11:56:10.691Z,100812.12
2018-12-18T11:58:36.788Z,100810.46
2018-12-18T12:01:02.738Z,100802.75
2018-12-18T12:03:28.712Z,100804.38
2018-12-18T12:05:56.413Z,100798.80
2018-12-18T12:08:22.383Z,100794.52
2018-12-18T12:10:48.357Z,100792.50
2018-12-18T12:13:14.328Z,100786.27
2018-12-18T12:15:40.416Z,100786.61
2018-12-18T12:18:06.390Z,100775.00
2018-12-18T12:20:32.416Z,100778.07
2018-12-18T12:22:58.368Z,100780.91
2018-12-18T12:25:24.333Z,100774.20
2018-12-18T12:27:50.273Z,100769.94
2018-12-18T12:30:16.235Z,100763.70
2018-12-18T12:32:42.176Z,100768.44
2018-12-18T12:35:08.135Z,100766.77
2018-12-18T12:37:34.103Z,100763.23
2018-12-18T12:40:00.073Z,100761.38
2018-12-18T12:42:26.071Z,100759.03
2018-12-18T12:44:52.031Z,100740.81
2018-12-18T12:47:17.977Z,100744.97
2018-12-18T12:49:43.932Z,100742.95
2018-12-18T12:52:09.920Z,100742.64
2018-12-18T12:54:35.870Z,100747.39
2018-12-18T12:57:01.831Z,100741.09
2018-12-18T12:59:27.807Z,100740.20
2018-12-18T13:01:53.794Z,100742.06
2018-12-18T13:04:19.776Z,100736.28
2018-12-18T13:06:45.745Z,100742.58
2018-12-18T13:09:11.690Z,100740.78
2018-12-18T13:11:37.653Z,100735.06
2018-12-18T13:14:03.608Z,100724.84
2018-12-18T13:16:29.582Z,100725.37
2018-12-18T13:18:55.557Z,100728.14
2018-12-18T13:21:21.513Z,100729.65
2018-12-18T13:23:50.072Z,100730.48
2018-12-18T13:26:16.050Z,100727.09
2018-12-18T13:28:42.035Z,100732.44
2018-12-18T13:31:08.047Z,100730.62
2018-12-18T13:33:33.999Z,100734.88
2018-12-18T13:35:59.962Z,100731.77
2018-12-18T13:38:25.952Z,100720.66
2018-12-18T13:40:51.889Z,100720.85
2018-12-18T13:43:17.909Z,100713.96
2018-12-18T13:45:43.905Z,100709.33
2018-12-18T13:48:09.883Z,100710.84
2018-12-18T13:50:35.843Z,100708.83
2018-12-18T13:53:01.804Z,100716.13
2018-12-18T13:55:27.991Z,100715.56
2018-12-18T13:57:53.954Z,100711.54
2018-12-18T14:00:19.912Z,100711.98
2018-12-18T14:02:45.903Z,100711.77
2018-12-18T14:05:11.918Z,100710.32
2018-12-18T14:07:37.895Z,100712.06
2018-12-18T14:10:03.895Z,100704.94
2018-12-18T14:12:29.872Z,100701.37
2018-12-18T14:14:55.832Z,100702.23
2018-12-18T14:17:22.038Z,100702.79
2018-12-18T14:19:47.988Z,100700.41
2018-12-18T14:22:14.067Z,100697.72
2018-12-18T14:24:40.129Z,100694.31
2018-12-18T14:27:06.068Z,100693.30
2018-12-18T14:29:32.050Z,100693.25
2018-12-18T14:31:58.142Z,100697.94
2018-12-18T14:34:24.134Z,100704.81
2018-12-18T14:36:56.062Z,100707.11
2018-12-18T14:39:19.366Z,100701.94
2018-12-18T14:41:45.397Z,100705.06
2018-12-18T14:44:11.358Z,100696.23
2018-12-18T14:46:37.393Z,100708.55
2018-12-18T14:49:03.379Z,100714.31
2018-12-18T14:51:29.321Z,100715.64
2018-12-18T14:53:55.314Z,100715.70
2018-12-18T14:56:21.302Z,100709.73
2018-12-18T14:58:47.502Z,100700.10
2018-12-18T15:01:13.542Z,100699.45
2018-12-18T15:03:39.523Z,100703.46
2018-12-18T15:06:05.563Z,100697.13
2018-12-18T15:08:31.580Z,100700.35
2018-12-18T15:10:57.574Z,100701.81
2018-12-18T15:13:23.572Z,100701.06
2018-12-18T15:15:49.528Z,100702.96
2018-12-18T15:18:15.501Z,100701.28
2018-12-18T15:20:41.438Z,100704.82
2018-12-18T15:23:07.436Z,100702.66
2018-12-18T15:25:33.399Z,100694.78
2018-12-18T15:27:59.393Z,100697.05
2018-12-18T15:30:26.078Z,100703.38
2018-12-18T15:32:52.280Z,100706.55
2018-12-18T15:35:18.220Z,100702.84
2018-12-18T15:37:44.188Z,100701.91
2018-12-18T15:40:10.132Z,100698.82
2018-12-18T15:42:36.180Z,100700.68
2018-12-18T15:45:02.981Z,100697.19
2018-12-18T15:47:28.945Z,100698.05
2018-12-18T15:49:54.909Z,100690.90
2018-12-18T15:52:20.876Z,100691.97
2018-12-18T15:54:46.860Z,100692.38
2018-12-18T15:57:12.832Z,100695.59
2018-12-18T15:59:39.480Z,100694.22
2018-12-18T16:02:05.440Z,100702.39
2018-12-18T16:04:31.439Z,100711.43
2018-12-18T16:06:57.381Z,100704.91
2018-12-18T16:09:23.357Z,100699.02
2018-12-18T16:11:49.878Z,100694.10
2018-12-18T16:14:17.012Z,100684.91
2018-12-18T16:16:42.957Z,100684.76
2018-12-18T16:19:10.172Z,100683.66
2018-12-18T16:21:37.061Z,100682.03
2018-12-18T16:24:03.033Z,100685.85
2018-12-18T16:26:29.086Z,100705.42
2018-12-18T16:28:55.075Z,100699.61
2018-12-18T16:31:21.154Z,100693.48
2018-12-18T16:33:47.148Z,100696.58
2018-12-18T16:36:13.154Z,100690.25
2018-12-18T16:38:40.065Z,100697.19
2018-12-18T16:41:06.035Z,100695.41
2018-12-18T16:43:31.998Z,100695.00
2018-12-18T16:45:57.965Z,100701.07
2018-12-18T16:48:23.923Z,100706.21
2018-12-18T16:50:49.954Z,100703.73
2018-12-18T16:53:16.187Z,100707.05
2018-12-18T16:55:42.274Z,100708.84
2018-12-18T16:58:08.223Z,100712.28
2018-12-18T17:00:34.177Z,100715.86
2018-12-18T17:03:00.143Z,100718.84
2018-12-18T17:05:26.123Z,100713.20
2018-12-18T17:07:52.813Z,100711.03
2018-12-18T17:10:18.818Z,100707.66
2018-12-18T17:12:44.764Z,100711.17
2018-12-18T17:15:11.428Z,100714.31
2018-12-18T17:17:37.366Z,100720.35
2018-12-18T17:20:03.324Z,100728.27
2018-12-18T17:22:30.082Z,100724.06
2018-12-18T17:24:56.052Z,100728.17
2018-12-18T17:27:22.023Z,100723.42
2018-12-18T17:29:48.029Z,100726.52
2018-12-18T17:32:13.984Z,100723.09
2018-12-18T17:34:39.926Z,100728.69
2018-12-18T17:37:05.883Z,100730.33
2018-12-18T17:39:31.827Z,100734.92
2018-12-18T17:41:57.771Z,100728.87
2018-12-18T17:44:23.708Z,100732.69
2018-12-18T17:46:49.688Z,100731.87
2018-12-18T17:49:15.637Z,100739.27
2018-12-18T17:51:41.615Z,100708.94
2018-12-18T17:54:07.572Z,100731.98
2018-12-18T17:56:34.639Z,100726.42
2018-12-18T17:59:00.595Z,100720.38
2018-12-18T18:01:26.555Z,100715.47
2018-12-18T18:03:53.124Z,100714.36
2018-12-18T18:06:19.077Z,100718.66
2018-12-18T18:08:45.040Z,100725.27
2018-12-18T18:11:12.084Z,100718.36
2018-12-18T18:13:38.045Z,100706.09
2018-12-18T18:16:04.004Z,100704.23
2018-12-18T18:18:30.089Z,100701.47
2018-12-18T18:20:56.099Z,100691.88
2018-12-18T18:23:22.408Z,100690.12
2018-12-18T18:25:50.337Z,100678.42
2018-12-18T18:28:16.409Z,100679.03
2018-12-18T18:30:43.456Z,100672.66
2018-12-18T18:33:11.525Z,100673.06
2018-12-18T18:35:37.548Z,100665.94
2018-12-18T18:38:03.529Z,100669.09
2018-12-18T18:40:29.512Z,100674.13
2018-12-18T18:42:55.530Z,100674.66
2018-12-18T18:45:21.466Z,100675.27
2018-12-18T18:47:48.150Z,100679.20
2018-12-18T18:50:14.116Z,100673.61
2018-12-18T18:55:16.597Z,100663.98
2018-12-18T18:57:42.592Z,100662.16
2018-12-18T19:00:09.578Z,100666.95
2018-12-18T19:02:35.534Z,100673.89
2018-12-18T19:05:01.566Z,100674.42
2018-12-18T19:07:27.824Z,100675.37
2018-12-18T19:09:53.914Z,100669.05
2018-12-18T19:12:19.959Z,100667.77
2018-12-18T19:14:45.949Z,100670.38
2018-12-18T19:17:11.968Z,100663.04
2018-12-18T19:19:37.929Z,100662.91
2018-12-18T19:22:03.950Z,100665.58
2018-12-18T19:24:29.954Z,100665.83
2018-12-18T19:27:01.153Z,100660.06
2018-12-18T19:29:27.173Z,100650.13
2018-12-18T19:31:53.136Z,100650.97
2018-12-18T19:34:21.152Z,100645.42
2018-12-18T19:36:47.333Z,100647.63
2018-12-18T19:39:13.586Z,100641.14
2018-12-18T19:41:39.544Z,100641.82
2018-12-18T19:44:05.552Z,100634.08
2018-12-18T19:46:31.553Z,100634.56
2018-12-18T19:48:57.553Z,100634.30
2018-12-18T19:51:23.520Z,100632.73
2018-12-18T19:53:49.498Z,100623.61
2018-12-18T19:56:15.517Z,100614.78
2018-12-18T19:58:41.513Z,100610.22
2018-12-18T20:01:07.478Z,100604.08
2018-12-18T20:03:33.495Z,100597.75
2018-12-18T20:05:59.603Z,100596.80
2018-12-18T20:08:25.608Z,100590.92
2018-12-18T20:10:51.668Z,100586.56
2018-12-18T20:13:17.689Z,100586.27
2018-12-18T20:15:43.658Z,100581.31
2018-12-18T20:18:09.636Z,100576.28
2018-12-18T20:25:38.778Z,100577.27
2018-12-18T20:28:04.783Z,100573.38
2018-12-18T20:30:30.757Z,100572.33
2018-12-18T20:32:56.725Z,100571.61
2018-12-18T20:35:22.675Z,100571.44
2018-12-18T20:37:48.761Z,100563.91
2018-12-18T20:40:14.752Z,100562.61
2018-12-18T20:42:40.859Z,100556.34
2018-12-18T20:45:06.821Z,100562.73
2018-12-18T20:47:32.937Z,100548.63
2018-12-18T20:52:30.956Z,100533.11
2018-12-18T20:54:56.924Z,100530.06
2018-12-18T20:57:22.881Z,100530.80
2018-12-18T20:59:48.919Z,100524.79
2018-12-18T21:02:14.895Z,100526.25
2018-12-18T21:04:40.884Z,100527.30
2018-12-18T21:07:06.922Z,100521.82
2018-12-18T21:12:09.191Z,100499.64
2018-12-18T21:14:35.168Z,100502.33
2018-12-18T21:17:01.176Z,100491.31
2018-12-18T21:19:27.320Z,100482.41
2018-12-18T21:21:53.311Z,100473.09
2018-12-18T21:24:19.271Z,100468.02
2018-12-18T21:26:45.292Z,100463.97
2018-12-18T21:29:11.278Z,100460.25
2018-12-18T21:31:37.256Z,100459.56
2018-12-18T21:34:03.343Z,100457.70
2018-12-18T21:36:31.389Z,100455.02
2018-12-18T21:38:57.341Z,100453.34
2018-12-18T21:41:23.381Z,100457.95
2018-12-18T21:43:50.596Z,100462.62
2018-12-18T21:46:16.708Z,100466.83
2018-12-18T21:48:42.761Z,100461.38
2018-12-18T21:51:08.809Z,100462.42
2018-12-18T21:53:34.985Z,100461.45
2018-12-18T21:56:00.976Z,100461.94
2018-12-18T21:58:26.949Z,100455.70
2018-12-18T22:00:55.034Z,100453.02
2018-12-18T22:05:56.355Z,100446.41
2018-12-18T22:08:22.331Z,100446.52
2018-12-18T22:10:48.293Z,100441.77
2018-12-18T22:13:14.261Z,100433.58
2018-12-18T22:15:40.237Z,100439.11
2018-12-18T22:18:06.240Z,100436.66
2018-12-18T22:20:32.271Z,100427.18
2018-12-18T22:22:58.277Z,100431.36
2018-12-18T22:25:24.323Z,100425.80
2018-12-18T22:27:50.349Z,100417.35
2018-12-18T22:30:16.319Z,100417.75
2018-12-18T22:32:42.320Z,100413.91
2018-12-18T22:35:08.295Z,100410.88
2018-12-18T22:37:34.262Z,100405.05
2018-12-18T22:40:00.243Z,100399.41
2018-12-18T22:42:26.227Z,100397.45
2018-12-18T22:44:52.209Z,100394.17
2018-12-18T22:47:18.157Z,100393.56
2018-12-18T22:49:44.179Z,100386.22
2018-12-18T22:52:10.144Z,100379.17
2018-12-18T22:54:36.131Z,100387.92
2018-12-18T22:57:02.104Z,100380.86
2018-12-18T22:59:28.076Z,100365.00
2018-12-18T23:01:54.092Z,100363.83
2018-12-18T23:04:20.041Z,100362.87
2018-12-18T23:06:46.025Z,100358.85
2018-12-18T23:09:11.991Z,100368.59
2018-12-18T23:11:37.982Z,100368.16
2018-12-18T23:14:03.958Z,100364.15
2018-12-18T23:16:29.971Z,100355.86
2018-12-18T23:18:55.943Z,100354.58
2018-12-18T23:21:21.927Z,100352.86
2018-12-18T23:23:47.902Z,100345.87
2018-12-18T23:26:13.888Z,100341.66
2018-12-18T23:28:39.849Z,100331.53
2018-12-18T23:31:05.903Z,100244.73
2018-12-18T23:33:31.892Z,100317.30
2018-12-18T23:35:57.941Z,100312.83
2018-12-18T23:38:23.964Z,100309.41
2018-12-18T23:40:49.917Z,100311.31
2018-12-18T23:43:15.905Z,100309.55
2018-12-18T23:45:41.861Z,100308.48
2018-12-18T23:48:07.860Z,100300.39
2018-12-18T23:50:33.828Z,100301.37
2018-12-18T23:52:59.819Z,100302.52
2018-12-18T23:55:25.876Z,100300.28
2018-12-18T23:57:52.135Z,100292.47
